createdAt,value
2018-01-13T00:02:24.788Z,29.80
2018-01-13T00:04:51.184Z,29.27
2018-01-13T00:07:18.319Z,30.40
2018-01-13T00:09:44.709Z,30.67
2018-01-13T00:12:11.128Z,32.40
2018-01-13T00:14:37.499Z,31.45
2018-01-13T00:17:03.894Z,33.00
2018-01-13T00:19:30.294Z,33.28
2018-01-13T00:21:57.433Z,32.35
2018-01-13T00:24:23.853Z,34.35
2018-01-13T00:26:50.298Z,33.60
2018-01-13T00:29:16.689Z,37.53
2018-01-13T00:31:43.091Z,36.47
2018-01-13T00:34:10.208Z,34.45
2018-01-13T00:36:36.607Z,32.58
2018-01-13T00:39:03.112Z,35.38
2018-01-13T00:41:30.264Z,33.92
2018-01-13T00:43:57.414Z,33.92
2018-01-13T00:46:24.604Z,33.13
2018-01-13T00:48:51.038Z,30.77
2018-01-13T00:51:17.450Z,32.67
2018-01-13T00:53:43.829Z,33.03
2018-01-13T00:56:10.251Z,32.50
2018-01-13T00:58:36.625Z,31.83
2018-01-13T01:01:03.008Z,30.80
2018-01-13T01:03:29.445Z,31.60
2018-01-13T01:05:55.889Z,32.55
2018-01-13T01:08:22.285Z,32.07
2018-01-13T01:10:48.746Z,35.35
2018-01-13T01:13:15.138Z,32.42
2018-01-13T01:15:42.273Z,31.12
2018-01-13T01:18:08.718Z,33.55
2018-01-13T01:20:35.855Z,34.13
2018-01-13T01:23:02.265Z,32.72
2018-01-13T01:25:28.750Z,34.10
2018-01-13T01:27:55.892Z,32.20
2018-01-13T01:30:23.051Z,34.13
2018-01-13T01:32:50.209Z,33.97
2018-01-13T01:35:17.394Z,34.65
2018-01-13T01:37:43.789Z,35.67
2018-01-13T01:40:10.909Z,36.25
2018-01-13T01:42:37.353Z,34.65
2018-01-13T01:45:03.754Z,34.30
2018-01-13T01:47:30.155Z,35.28
2018-01-13T01:49:56.592Z,37.75
2018-01-13T01:52:22.997Z,35.78
2018-01-13T01:54:49.398Z,35.83
2018-01-13T01:57:15.789Z,35.40
2018-01-13T01:59:42.937Z,36.78
2018-01-13T02:02:10.069Z,36.95
2018-01-13T02:04:36.518Z,37.07
2018-01-13T02:07:03.638Z,36.38
2018-01-13T02:09:30.054Z,36.60
2018-01-13T02:11:56.454Z,36.55
2018-01-13T02:14:22.860Z,36.22
2018-01-13T02:16:49.981Z,37.95
2018-01-13T02:19:16.387Z,37.90
2018-01-13T02:21:42.790Z,38.30
2018-01-13T02:24:09.926Z,39.28
2018-01-13T02:26:36.337Z,39.17
2018-01-13T02:29:02.742Z,37.10
2018-01-13T02:31:29.133Z,37.38
2018-01-13T02:33:56.289Z,37.55
2018-01-13T02:36:23.446Z,38.10
2018-01-13T02:38:50.566Z,37.03
2018-01-13T02:41:17.017Z,38.53
2018-01-13T02:43:43.418Z,40.00
2018-01-13T02:46:09.859Z,36.67
2018-01-13T02:48:36.251Z,39.55
2018-01-13T02:51:02.655Z,38.25
2018-01-13T02:53:29.076Z,38.03
2018-01-13T02:55:56.218Z,36.72
2018-01-13T02:58:22.625Z,38.07
2018-01-13T03:00:49.048Z,37.17
2018-01-13T03:03:15.483Z,36.03
2018-01-13T03:05:41.861Z,36.80
2018-01-13T03:08:08.264Z,36.40
2018-01-13T03:10:34.709Z,36.40
2018-01-13T03:13:01.152Z,37.92
2018-01-13T03:15:27.541Z,38.40
2018-01-13T03:17:53.973Z,37.40
2018-01-13T03:20:20.368Z,37.42
2018-01-13T03:22:46.784Z,37.97
2018-01-13T03:25:13.202Z,39.03
2018-01-13T03:27:39.581Z,39.42
2018-01-13T03:30:05.986Z,37.88
2018-01-13T03:32:32.395Z,37.15
2018-01-13T03:34:58.810Z,38.63
2018-01-13T03:37:25.230Z,39.17
2018-01-13T03:39:52.357Z,38.78
2018-01-13T03:42:18.783Z,37.15
2018-01-13T03:44:45.198Z,37.28
2018-01-13T03:47:11.557Z,36.28
2018-01-13T03:49:37.985Z,37.53
2018-01-13T03:52:04.370Z,38.33
2018-01-13T03:54:30.800Z,38.53
2018-01-13T03:56:57.229Z,38.22
2018-01-13T03:59:24.381Z,37.55
2018-01-13T04:01:51.549Z,36.08
2018-01-13T04:04:17.931Z,37.20
2018-01-13T04:06:44.339Z,37.97
2018-01-13T04:09:10.742Z,35.53
2018-01-13T04:11:37.129Z,36.47
2018-01-13T04:14:03.552Z,37.13
2018-01-13T04:16:29.970Z,38.63
2018-01-13T04:18:56.417Z,36.25
2018-01-13T04:21:22.849Z,37.10
2018-01-13T04:23:49.262Z,37.17
2018-01-13T04:26:15.670Z,36.47
2018-01-13T04:28:42.829Z,37.33
2018-01-13T04:31:09.228Z,38.05
2018-01-13T04:33:35.594Z,36.65
2018-01-13T04:36:01.993Z,36.38
2018-01-13T04:38:28.404Z,37.50
2018-01-13T04:40:54.822Z,38.23
2018-01-13T04:43:21.319Z,35.38
2018-01-13T04:45:47.777Z,37.75
2018-01-13T04:48:14.332Z,37.22
2018-01-13T04:50:40.784Z,38.88
2018-01-13T04:53:07.758Z,37.28
2018-01-13T04:55:34.474Z,36.55
2018-01-13T04:58:00.883Z,36.55
2018-01-13T05:00:27.268Z,36.20
2018-01-13T05:02:53.662Z,36.90
2018-01-13T05:05:20.077Z,36.67
2018-01-13T05:07:46.526Z,37.25
2018-01-13T05:10:13.016Z,36.35
2018-01-13T05:12:40.206Z,36.22
2018-01-13T05:15:06.685Z,36.92
2018-01-13T05:17:33.068Z,37.63
2018-01-13T05:19:59.485Z,38.28
2018-01-13T05:22:26.659Z,37.80
2018-01-13T05:24:53.614Z,35.20
2018-01-13T05:27:20.036Z,35.65
2018-01-13T05:29:46.415Z,34.65
2018-01-13T05:32:12.826Z,33.47
2018-01-13T05:34:39.225Z,35.72
2018-01-13T05:37:05.601Z,33.33
2018-01-13T05:39:32.020Z,34.10
2018-01-13T05:41:58.444Z,34.00
2018-01-13T05:44:24.825Z,34.28
2018-01-13T05:46:51.269Z,33.65
2018-01-13T05:49:18.476Z,31.75
2018-01-13T05:51:44.946Z,33.13
2018-01-13T05:54:11.447Z,34.72
2018-01-13T05:56:38.230Z,32.28
2018-01-13T05:59:05.385Z,31.27
2018-01-13T06:01:32.090Z,31.92
2018-01-13T06:04:10.621Z,31.53
2018-01-13T06:06:48.378Z,31.80
2018-01-13T06:09:24.887Z,31.12
2018-01-13T06:11:52.280Z,29.00
2018-01-13T06:14:19.412Z,30.00
2018-01-13T06:16:45.873Z,29.50
2018-01-13T06:19:13.029Z,29.80
2018-01-13T06:21:40.161Z,28.42
2018-01-13T06:24:06.568Z,29.25
2018-01-13T06:26:32.952Z,29.70
2018-01-13T06:28:59.370Z,30.60
2018-01-13T06:31:25.798Z,28.87
2018-01-13T06:33:57.607Z,27.35
2018-01-13T06:36:31.295Z,30.05
2018-01-13T06:39:01.144Z,29.95
2018-01-13T06:41:29.513Z,29.53
2018-01-13T06:43:58.237Z,31.15
2018-01-13T06:46:26.960Z,28.25
2018-01-13T06:48:56.379Z,29.55
2018-01-13T06:51:22.845Z,31.10
2018-01-13T06:53:49.225Z,31.60
2018-01-13T06:56:16.383Z,30.67
2018-01-13T06:58:43.545Z,30.50
2018-01-13T07:01:11.640Z,28.48
2018-01-13T07:03:38.022Z,31.00
2018-01-13T07:06:04.438Z,29.55
2018-01-13T07:08:30.829Z,30.62
2018-01-13T07:10:57.222Z,28.57
2018-01-13T07:13:23.647Z,30.55
2018-01-13T07:15:50.044Z,29.65
2018-01-13T07:18:16.452Z,30.48
2018-01-13T07:20:42.850Z,30.60
2018-01-13T07:23:09.988Z,29.00
2018-01-13T07:25:36.402Z,31.73
2018-01-13T07:28:02.935Z,29.60
2018-01-13T07:30:29.321Z,30.25
2018-01-13T07:32:56.466Z,31.80
2018-01-13T07:35:22.869Z,31.48
2018-01-13T07:37:49.255Z,31.10
2018-01-13T07:40:15.673Z,29.77
2018-01-13T07:42:42.816Z,30.65
2018-01-13T07:45:09.213Z,29.53
2018-01-13T07:47:35.618Z,30.23
2018-01-13T07:50:02.015Z,31.10
2018-01-13T07:52:28.413Z,28.62
2018-01-13T07:54:54.813Z,29.95
2018-01-13T07:57:21.996Z,30.48
2018-01-13T07:59:48.381Z,29.27
2018-01-13T08:02:15.570Z,29.50
2018-01-13T08:04:41.974Z,29.65
2018-01-13T08:07:09.146Z,28.80
2018-01-13T08:09:35.609Z,29.30
2018-01-13T08:12:02.050Z,28.90
2018-01-13T08:14:28.425Z,27.58
2018-01-13T08:16:55.581Z,27.77
2018-01-13T08:19:22.702Z,27.87
2018-01-13T08:21:49.123Z,27.50
2018-01-13T08:24:15.531Z,27.15
2018-01-13T08:26:41.922Z,29.10
2018-01-13T08:29:08.326Z,28.00
2018-01-13T08:31:34.741Z,29.70
2018-01-13T08:34:01.134Z,28.52
2018-01-13T08:36:28.301Z,30.20
2018-01-13T08:38:54.725Z,28.92
2018-01-13T08:41:21.857Z,32.30
2018-01-13T08:43:48.266Z,29.77
2018-01-13T08:46:14.957Z,28.67
2018-01-13T08:48:42.080Z,28.30
2018-01-13T08:51:08.506Z,30.75
2018-01-13T08:53:34.944Z,30.70
2018-01-13T08:56:01.327Z,29.30
2018-01-13T08:58:27.778Z,29.67
2018-01-13T09:00:54.216Z,31.00
2018-01-13T09:03:20.663Z,28.85
2018-01-13T09:05:47.092Z,30.88
2018-01-13T09:08:13.525Z,31.77
2018-01-13T09:10:39.949Z,30.00
2018-01-13T09:13:06.354Z,29.83
2018-01-13T09:15:32.766Z,28.90
2018-01-13T09:17:59.213Z,28.05
2018-01-13T09:20:26.380Z,27.20
2018-01-13T09:22:52.814Z,25.25
2018-01-13T09:25:19.247Z,25.70
2018-01-13T09:27:45.630Z,24.30
2018-01-13T09:30:12.096Z,24.60
2018-01-13T09:32:39.257Z,24.12
2018-01-13T09:35:06.424Z,22.80
2018-01-13T09:37:32.826Z,23.48
2018-01-13T09:39:59.958Z,21.60
2018-01-13T09:42:26.395Z,24.27
2018-01-13T09:44:52.860Z,21.62
2018-01-13T09:47:20.025Z,23.02
2018-01-13T09:49:46.456Z,21.60
2018-01-13T09:52:13.706Z,20.00
2018-01-13T09:54:40.070Z,19.90
2018-01-13T09:57:06.489Z,17.67
2018-01-13T09:59:33.050Z,19.00
2018-01-13T10:01:59.437Z,17.50
2018-01-13T10:04:26.597Z,17.20
2018-01-13T10:06:53.022Z,15.30
2018-01-13T10:09:20.154Z,15.43
2018-01-13T10:11:46.571Z,14.95
2018-01-13T10:14:13.009Z,16.60
2018-01-13T10:16:39.402Z,16.90
2018-01-13T10:19:05.809Z,17.15
2018-01-13T10:21:32.945Z,16.75
2018-01-13T10:23:59.351Z,16.95
2018-01-13T10:26:25.763Z,17.02
2018-01-13T10:28:52.174Z,17.73
2018-01-13T10:31:19.313Z,17.60
2018-01-13T10:33:46.465Z,17.80
2018-01-13T10:36:13.594Z,18.42
2018-01-13T10:38:40.011Z,17.52
2018-01-13T10:41:06.431Z,15.27
2018-01-13T10:43:32.821Z,14.43
2018-01-13T10:45:59.984Z,15.30
2018-01-13T10:48:26.416Z,15.13
2018-01-13T10:50:52.809Z,15.10
2018-01-13T10:53:19.238Z,15.15
2018-01-13T10:55:45.646Z,15.75
2018-01-13T10:58:12.041Z,17.10
2018-01-13T11:00:39.182Z,17.02
2018-01-13T11:03:05.600Z,15.52
2018-01-13T11:05:32.002Z,16.55
2018-01-13T11:07:58.446Z,17.50
2018-01-13T11:10:24.864Z,16.77
2018-01-13T11:12:51.277Z,17.25
2018-01-13T11:15:17.693Z,18.55
2018-01-13T11:17:44.860Z,19.20
2018-01-13T11:20:11.994Z,21.00
2018-01-13T11:22:39.159Z,18.77
2018-01-13T11:25:06.311Z,20.00
2018-01-13T11:27:32.733Z,19.85
2018-01-13T11:29:59.876Z,18.80
2018-01-13T11:32:26.285Z,16.98
2018-01-13T11:34:52.648Z,17.37
2018-01-13T11:37:19.057Z,16.02
2018-01-13T11:39:45.477Z,16.92
2018-01-13T11:42:11.918Z,16.45
2018-01-13T11:44:38.375Z,17.33
2018-01-13T11:47:04.795Z,17.30
2018-01-13T11:49:31.174Z,17.52
2018-01-13T11:51:58.364Z,17.80
2018-01-13T11:54:24.781Z,19.75
2018-01-13T11:56:51.186Z,18.12
2018-01-13T11:59:18.409Z,18.98
2018-01-13T12:01:44.961Z,19.90
2018-01-13T12:04:11.425Z,19.62
2018-01-13T12:06:39.459Z,19.67
2018-01-13T12:09:05.871Z,21.77
2018-01-13T12:11:32.535Z,21.50
2018-01-13T12:13:59.018Z,20.08
2018-01-13T12:16:25.499Z,20.02
2018-01-13T12:18:51.929Z,19.77
2018-01-13T12:21:18.381Z,19.52
2018-01-13T12:23:44.757Z,19.83
2018-01-13T12:26:11.210Z,19.67
2018-01-13T12:28:37.594Z,21.10
2018-01-13T12:31:04.741Z,19.50
2018-01-13T12:33:31.132Z,19.15
2018-01-13T12:35:57.504Z,20.50
2018-01-13T12:38:23.901Z,22.05
2018-01-13T12:40:50.301Z,20.77
2018-01-13T12:43:16.682Z,19.87
2018-01-13T12:45:43.091Z,21.25
2018-01-13T12:48:09.469Z,21.47
2018-01-13T12:50:35.872Z,22.00
2018-01-13T12:53:02.300Z,23.25
2018-01-13T12:55:28.657Z,23.83
2018-01-13T12:57:55.062Z,23.48
2018-01-13T13:00:21.445Z,26.55
2018-01-13T13:02:47.861Z,26.10
2018-01-13T13:05:14.270Z,25.80
2018-01-13T13:07:40.708Z,26.80
2018-01-13T13:10:07.115Z,27.65
2018-01-13T13:12:33.492Z,28.58
2018-01-13T13:14:59.887Z,28.08
2018-01-13T13:17:26.285Z,28.67
2018-01-13T13:19:53.397Z,27.08
2018-01-13T13:22:19.796Z,28.00
2018-01-13T13:24:46.197Z,26.40
2018-01-13T13:27:12.565Z,28.50
2018-01-13T13:29:38.970Z,28.27
2018-01-13T13:32:06.114Z,28.45
2018-01-13T13:34:32.513Z,28.73
2018-01-13T13:36:58.942Z,27.10
2018-01-13T13:39:25.345Z,25.48
2018-01-13T13:41:52.484Z,26.65
2018-01-13T13:44:19.602Z,27.30
2018-01-13T13:46:46.010Z,26.52
2018-01-13T13:49:12.453Z,27.05
2018-01-13T13:51:38.828Z,30.75
2018-01-13T13:54:05.262Z,38.40
2018-01-13T13:56:31.641Z,27.92
2018-01-13T13:58:58.037Z,51.53
2018-01-13T14:01:28.778Z,30.67
2018-01-13T14:03:52.309Z,26.58
2018-01-13T14:06:18.715Z,27.55
2018-01-13T14:08:45.206Z,28.25
2018-01-13T14:11:12.359Z,27.48
2018-01-13T14:13:39.493Z,25.42
2018-01-13T14:16:05.865Z,26.00
2018-01-13T14:18:32.270Z,25.12
2018-01-13T14:20:58.641Z,28.33
2018-01-13T14:23:25.146Z,29.15
2018-01-13T14:25:52.321Z,27.60
2018-01-13T14:28:18.705Z,29.15
2018-01-13T14:30:45.084Z,28.05
2018-01-13T14:33:11.482Z,27.48
2018-01-13T14:35:37.881Z,26.37
2018-01-13T14:38:04.282Z,27.50
2018-01-13T14:40:30.684Z,25.30
2018-01-13T14:42:57.090Z,24.98
2018-01-13T14:45:23.482Z,27.17
2018-01-13T14:47:50.644Z,26.12
2018-01-13T14:50:17.054Z,26.27
2018-01-13T14:52:44.218Z,25.80
2018-01-13T14:55:11.361Z,25.73
2018-01-13T14:57:38.486Z,26.05
2018-01-13T15:00:04.893Z,29.73
2018-01-13T15:02:31.270Z,28.58
2018-01-13T15:04:57.681Z,27.13
2018-01-13T15:07:24.105Z,26.75
2018-01-13T15:09:50.490Z,26.80
2018-01-13T15:12:17.605Z,27.50
2018-01-13T15:14:43.996Z,26.40
2018-01-13T15:17:10.392Z,26.77
2018-01-13T15:19:36.846Z,25.45
2018-01-13T15:22:04.045Z,26.00
2018-01-13T15:24:30.491Z,30.75
2018-01-13T15:26:56.904Z,26.77
2018-01-13T15:29:23.289Z,28.05
2018-01-13T15:31:50.440Z,26.65
2018-01-13T15:34:17.588Z,28.17
2018-01-13T15:36:44.774Z,27.67
2018-01-13T15:39:11.182Z,30.15
2018-01-13T15:41:38.360Z,26.70
2018-01-13T15:44:04.759Z,29.27
2018-01-13T15:46:31.156Z,27.27
2018-01-13T15:48:57.548Z,27.87
2018-01-13T15:51:23.937Z,28.30
2018-01-13T15:53:50.361Z,30.33
2018-01-13T15:56:16.736Z,31.60
2018-01-13T15:58:50.886Z,27.50
2018-01-13T16:01:17.293Z,30.52
2018-01-13T16:03:43.686Z,28.17
2018-01-13T16:06:10.114Z,28.87
2018-01-13T16:08:36.501Z,28.83
2018-01-13T16:11:02.919Z,29.70
2018-01-13T16:13:30.044Z,28.02
2018-01-13T16:15:57.197Z,30.67
2018-01-13T16:18:23.611Z,29.30
2018-01-13T16:20:50.032Z,28.63
2018-01-13T16:23:16.409Z,29.55
2018-01-13T16:25:42.822Z,29.58
2018-01-13T16:28:09.212Z,27.85
2018-01-13T16:30:35.625Z,28.90
2018-01-13T16:33:02.795Z,30.50
2018-01-13T16:35:29.172Z,29.95
2018-01-13T16:37:55.581Z,29.75
2018-01-13T16:40:21.949Z,30.83
2018-01-13T16:42:48.368Z,32.42
2018-01-13T16:45:14.762Z,31.60
2018-01-13T16:47:41.160Z,31.17
2018-01-13T16:50:07.590Z,32.33
2018-01-13T16:52:34.010Z,29.48
2018-01-13T16:55:00.421Z,30.52
2018-01-13T16:57:26.802Z,28.65
2018-01-13T16:59:53.205Z,30.77
2018-01-13T17:02:19.653Z,28.62
2018-01-13T17:04:46.037Z,30.77
2018-01-13T17:07:12.422Z,27.92
2018-01-13T17:09:38.825Z,27.90
2018-01-13T17:12:05.234Z,28.17
2018-01-13T17:14:32.390Z,29.20
2018-01-13T17:16:58.779Z,29.05
2018-01-13T17:19:25.247Z,31.30
2018-01-13T17:21:52.414Z,31.02
2018-01-13T17:24:18.836Z,27.37
2018-01-13T17:26:45.987Z,28.40
2018-01-13T17:29:13.142Z,26.33
2018-01-13T17:31:39.562Z,25.25
2018-01-13T17:34:06.682Z,28.00
2018-01-13T17:36:33.110Z,27.62
2018-01-13T17:38:59.517Z,27.20
2018-01-13T17:41:25.914Z,26.12
2018-01-13T17:43:53.042Z,33.85
2018-01-13T17:46:19.461Z,26.08
2018-01-13T17:48:45.925Z,28.33
2018-01-13T17:51:12.379Z,26.00
2018-01-13T17:53:39.513Z,24.10
2018-01-13T17:56:05.913Z,25.88
2018-01-13T17:58:32.334Z,25.95
2018-01-13T18:00:58.736Z,25.10
2018-01-13T18:03:25.891Z,25.37
2018-01-13T18:05:52.275Z,26.65
2018-01-13T18:08:18.677Z,26.62
2018-01-13T18:10:45.043Z,27.40
2018-01-13T18:13:11.455Z,27.87
2018-01-13T18:15:37.852Z,25.33
2018-01-13T18:18:05.402Z,26.23
2018-01-13T18:20:32.541Z,25.95
2018-01-13T18:22:58.982Z,26.27
2018-01-13T18:25:25.373Z,24.92
2018-01-13T18:27:51.773Z,23.60
2018-01-13T18:30:18.917Z,23.10
2018-01-13T18:32:46.082Z,26.30
2018-01-13T18:35:12.461Z,25.88
2018-01-13T18:37:38.893Z,23.20
2018-01-13T18:40:05.304Z,22.00
2018-01-13T18:42:31.701Z,22.37
2018-01-13T18:44:58.858Z,20.52
2018-01-13T18:47:26.164Z,18.30
2018-01-13T18:49:52.583Z,19.30
2018-01-13T18:52:19.001Z,18.08
2018-01-13T18:54:45.382Z,18.40
2018-01-13T18:57:11.790Z,19.87
2018-01-13T18:59:38.185Z,19.75
2018-01-13T19:02:05.338Z,19.45
2018-01-13T19:04:32.454Z,20.37
2018-01-13T19:06:58.853Z,21.35
2018-01-13T19:09:25.240Z,20.73
2018-01-13T19:11:51.638Z,20.20
2018-01-13T19:14:18.049Z,20.90
2018-01-13T19:16:44.462Z,20.50
2018-01-13T19:19:11.629Z,21.17
2018-01-13T19:21:38.006Z,23.55
2018-01-13T19:24:04.465Z,23.87
2018-01-13T19:26:31.600Z,24.67
2018-01-13T19:28:58.007Z,25.85
2018-01-13T19:31:24.425Z,27.10
2018-01-13T19:33:50.810Z,25.08
2018-01-13T19:36:17.229Z,28.55
2018-01-13T19:38:43.631Z,28.20
2018-01-13T19:41:10.057Z,29.47
2018-01-13T19:43:36.460Z,25.75
2018-01-13T19:46:03.619Z,25.37
2018-01-13T19:48:30.746Z,26.77
2018-01-13T19:50:57.165Z,27.00
2018-01-13T19:53:23.545Z,26.25
2018-01-13T19:55:49.986Z,23.10
2018-01-13T19:58:16.398Z,24.98
2018-01-13T20:00:43.583Z,24.48
2018-01-13T20:03:10.023Z,24.98
2018-01-13T20:05:36.441Z,23.33
2018-01-13T20:08:02.837Z,24.90
2018-01-13T20:10:29.250Z,21.75
2018-01-13T20:12:55.652Z,22.10
2018-01-13T20:15:22.045Z,22.73
2018-01-13T20:17:49.193Z,22.80
2018-01-13T20:20:15.610Z,20.23
2018-01-13T20:22:42.031Z,21.30
2018-01-13T20:25:08.426Z,21.02
2018-01-13T20:27:34.872Z,20.80
2018-01-13T20:30:01.262Z,26.55
2018-01-13T20:32:27.693Z,21.95
2018-01-13T20:34:54.114Z,22.48
2018-01-13T20:37:20.493Z,23.40
2018-01-13T20:39:47.626Z,23.40
2018-01-13T20:42:14.002Z,23.27
2018-01-13T20:44:40.426Z,22.23
2018-01-13T20:47:06.809Z,22.55
2018-01-13T20:49:33.212Z,23.30
2018-01-13T20:51:59.582Z,21.65
2018-01-13T20:54:26.021Z,22.08
2018-01-13T20:56:52.410Z,21.52
2018-01-13T20:59:18.814Z,21.83
2018-01-13T21:01:46.145Z,20.88
2018-01-13T21:04:12.542Z,21.37
2018-01-13T21:06:38.961Z,19.73
2018-01-13T21:09:05.400Z,20.90
2018-01-13T21:11:31.884Z,20.17
2018-01-13T21:13:58.245Z,20.92
2018-01-13T21:16:25.419Z,22.95
2018-01-13T21:18:51.788Z,25.15
2018-01-13T21:21:18.194Z,22.98
2018-01-13T21:23:44.587Z,22.65
2018-01-13T21:26:11.733Z,23.50
2018-01-13T21:28:38.874Z,24.12
2018-01-13T21:31:05.281Z,23.10
2018-01-13T21:33:32.644Z,20.98
2018-01-13T21:36:00.077Z,21.35
2018-01-13T21:38:26.470Z,23.20
2018-01-13T21:40:53.621Z,21.33
2018-01-13T21:43:20.825Z,22.83
2018-01-13T21:45:54.282Z,22.20
2018-01-13T21:48:21.421Z,21.85
2018-01-13T21:50:47.849Z,22.10
2018-01-13T21:53:14.249Z,21.30
2018-01-13T21:55:40.649Z,21.10
2018-01-13T21:58:07.051Z,19.95
2018-01-13T22:00:34.225Z,21.60
2018-01-13T22:03:00.634Z,22.50
2018-01-13T22:05:27.029Z,21.27
2018-01-13T22:07:53.456Z,22.02
2018-01-13T22:10:19.863Z,21.00
2018-01-13T22:12:46.255Z,21.12
2018-01-13T22:15:12.625Z,19.95
2018-01-13T22:17:39.781Z,21.60
2018-01-13T22:20:06.191Z,21.17
2018-01-13T22:22:32.605Z,20.85
2018-01-13T22:24:59.050Z,21.55
2018-01-13T22:27:25.486Z,19.85
2018-01-13T22:29:51.907Z,19.63
2018-01-13T22:32:18.305Z,19.77
2018-01-13T22:34:45.176Z,19.75
2018-01-13T22:37:11.569Z,19.23
2018-01-13T22:39:37.981Z,19.12
2018-01-13T22:42:06.014Z,19.17
2018-01-13T22:44:32.427Z,19.17
2018-01-13T22:46:59.045Z,18.85
2018-01-13T22:49:25.468Z,18.50
2018-01-13T22:51:53.171Z,17.80
2018-01-13T22:54:19.584Z,18.20
2018-01-13T22:56:45.974Z,19.52
2018-01-13T22:59:12.369Z,19.12
2018-01-13T23:01:39.221Z,18.40
2018-01-13T23:04:09.310Z,18.90
2018-01-13T23:06:37.068Z,19.15
2018-01-13T23:09:04.289Z,19.33
2018-01-13T23:11:31.020Z,20.47
2018-01-13T23:14:01.306Z,19.77
2018-01-13T23:16:32.471Z,19.42
2018-01-13T23:19:03.443Z,20.50
2018-01-13T23:21:35.400Z,18.55
2018-01-13T23:24:08.407Z,18.98
2018-01-13T23:26:40.433Z,19.42
2018-01-13T23:29:14.017Z,19.00
2018-01-13T23:31:46.657Z,19.70
2018-01-13T23:34:18.537Z,20.08
2018-01-13T23:36:50.870Z,20.20
2018-01-13T23:39:24.387Z,19.70
2018-01-13T23:41:56.823Z,21.45
2018-01-13T23:44:28.728Z,20.50
2018-01-13T23:47:00.100Z,21.30
2018-01-13T23:49:34.341Z,21.80
2018-01-13T23:52:02.905Z,21.65
2018-01-13T23:54:31.954Z,22.40
2018-01-13T23:57:00.504Z,21.05
2018-01-13T23:59:28.974Z,20.85
